Time;durP1;ratioP1;P1;durP2;ratioP2;P2;SDS_P1;SDS_P2;PMS_P1;PMS_P2;Temp;Humidity;BMP_temperature;BMP_pressure;BME280_temperature;BME280_humidity;BME280_pressure;Samples;Min_cycle;Max_cycle;Signal;HPM_P1;HPM_P2
2021/12/31 00:00:28;;;;;;;1.25;0.65;;;22.00;49.50;;;;;;5037973;28;20095;-51
2021/12/31 00:02:54;;;;;;;0.77;0.63;;;22.00;49.50;;;;;;5030537;28;20033;-49
2021/12/31 00:05:20;;;;;;;1.33;0.70;;;22.00;50.10;;;;;;5045275;28;20343;-56
2021/12/31 00:07:46;;;;;;;1.33;0.70;;;22.00;49.50;;;;;;5043671;28;20030;-58
2021/12/31 00:10:13;;;;;;;1.17;0.70;;;22.00;49.50;;;;;;5036952;28;20349;-49
2021/12/31 00:12:41;;;;;;;1.90;0.80;;;22.00;49.50;;;;;;5038406;28;20033;-49
2021/12/31 00:15:07;;;;;;;0.95;0.52;;;22.00;49.50;;;;;;5040523;28;20029;-46
2021/12/31 00:17:33;;;;;;;1.70;0.70;;;22.00;49.50;;;;;;5055486;28;20028;-54
2021/12/31 00:20:04;;;;;;;1.02;0.50;;;22.00;49.50;;;;;;5048693;28;20094;-49
2021/12/31 00:24:59;;;;;;;1.83;0.63;;;22.00;49.50;;;;;;5044857;28;20024;-50
2021/12/31 00:27:25;;;;;;;2.08;1.00;;;22.00;49.50;;;;;;5019263;28;20029;-52
2021/12/31 00:29:51;;;;;;;1.20;0.50;;;22.00;49.50;;;;;;5040571;28;20435;-52
2021/12/31 00:32:18;;;;;;;0.95;0.50;;;21.90;49.40;;;;;;5036605;28;20029;-51
2021/12/31 00:34:44;;;;;;;1.38;0.60;;;21.90;49.50;;;;;;5036821;28;20025;-52
2021/12/31 00:37:10;;;;;;;1.00;0.40;;;21.90;49.40;;;;;;5051793;28;20432;-46
2021/12/31 00:39:36;;;;;;;1.30;0.43;;;22.00;49.50;;;;;;5052747;28;20028;-53
2021/12/31 00:42:02;;;;;;;1.02;0.55;;;21.90;49.40;;;;;;5036380;28;20488;-48
2021/12/31 00:44:28;;;;;;;0.60;0.50;;;21.90;49.40;;;;;;5038058;28;20041;-53
2021/12/31 00:46:54;;;;;;;1.90;0.52;;;21.90;49.40;;;;;;5050505;28;20064;-55
2021/12/31 00:49:19;;;;;;;1.95;0.80;;;21.90;49.40;;;;;;5053631;28;20059;-50
2021/12/31 00:51:45;;;;;;;0.90;0.43;;;21.90;49.40;;;;;;5036761;28;20089;-50
2021/12/31 00:54:11;;;;;;;1.75;0.60;;;21.90;49.40;;;;;;5036232;28;20037;-53
2021/12/31 00:56:37;;;;;;;1.95;0.47;;;21.90;49.40;;;;;;5049959;28;20053;-50
2021/12/31 00:59:02;;;;;;;1.67;0.52;;;22.00;49.40;;;;;;5049459;28;20333;-50
2021/12/31 01:01:30;;;;;;;1.35;0.70;;;21.90;50.00;;;;;;5042408;28;20017;-47
2021/12/31 01:03:56;;;;;;;0.60;0.43;;;21.90;49.40;;;;;;5050339;28;20041;-52
2021/12/31 01:06:22;;;;;;;0.85;0.50;;;21.90;49.40;;;;;;5046341;28;20039;-51
2021/12/31 01:08:48;;;;;;;1.42;0.55;;;21.90;49.40;;;;;;5054259;28;20018;-48
2021/12/31 01:11:14;;;;;;;1.48;0.57;;;21.90;49.40;;;;;;5051657;28;20056;-55
2021/12/31 01:14:03;;;;;;;1.77;0.50;;;21.90;49.30;;;;;;5054574;28;20068;-55
2021/12/31 01:16:38;;;;;;;1.40;0.68;;;21.90;49.30;;;;;;5036317;28;20044;-50
2021/12/31 01:21:33;;;;;;;0.57;0.43;;;21.80;49.30;;;;;;5038671;28;20061;-50
2021/12/31 01:24:01;;;;;;;0.47;0.47;;;21.80;49.20;;;;;;5032036;28;20019;-50
2021/12/31 01:26:28;;;;;;;0.85;0.50;;;21.90;49.30;;;;;;5036639;28;20379;-51
2021/12/31 01:28:54;;;;;;;1.50;0.70;;;21.90;49.30;;;;;;5035000;28;20036;-54
2021/12/31 01:31:21;;;;;;;1.05;0.50;;;21.80;49.20;;;;;;5036517;28;20029;-53
2021/12/31 01:33:47;;;;;;;1.77;0.50;;;21.80;49.20;;;;;;5055200;28;20029;-53
2021/12/31 01:36:13;;;;;;;1.55;0.60;;;21.90;49.20;;;;;;5048436;28;20044;-51
2021/12/31 01:38:38;;;;;;;1.48;0.55;;;21.90;49.20;;;;;;5054945;28;20078;-54
2021/12/31 01:41:04;;;;;;;3.08;0.70;;;21.90;49.20;;;;;;5042238;28;20344;-51
2021/12/31 01:43:30;;;;;;;0.43;0.40;;;21.80;49.20;;;;;;5035645;28;20014;-50
2021/12/31 01:45:59;;;;;;;1.48;0.52;;;21.90;49.20;;;;;;5025050;28;20079;-49
2021/12/31 01:48:35;;;;;;;0.73;0.40;;;21.80;49.10;;;;;;5034889;28;20057;-51
2021/12/31 01:51:03;;;;;;;0.88;0.50;;;21.80;49.10;;;;;;5035496;28;20025;-51
2021/12/31 01:53:31;;;;;;;0.88;0.30;;;21.90;49.20;;;;;;5035804;28;20044;-49
2021/12/31 01:56:00;;;;;;;1.70;0.60;;;21.80;49.10;;;;;;5049477;28;20024;-47
2021/12/31 01:58:27;;;;;;;1.05;0.60;;;21.90;49.20;;;;;;5053693;28;20106;-52
2021/12/31 02:00:53;;;;;;;1.42;0.60;;;21.80;49.10;;;;;;5035424;28;20037;-52
2021/12/31 02:03:21;;;;;;;0.82;0.40;;;21.80;49.10;;;;;;5016830;28;20045;-47
2021/12/31 02:05:47;;;;;;;1.23;0.52;;;21.80;49.20;;;;;;5041352;28;20025;-52
2021/12/31 02:08:13;;;;;;;1.10;0.60;;;21.80;49.20;;;;;;5054545;28;20083;-45
2021/12/31 02:10:39;;;;;;;0.85;0.40;;;21.80;49.10;;;;;;5040096;28;20353;-55
2021/12/31 02:13:07;;;;;;;1.25;0.68;;;21.80;49.20;;;;;;5040365;28;20021;-51
2021/12/31 02:15:33;;;;;;;0.88;0.50;;;21.80;49.10;;;;;;5039572;28;20021;-47
2021/12/31 02:18:00;;;;;;;1.15;0.38;;;21.80;49.10;;;;;;5054638;28;20036;-49
2021/12/31 02:20:44;;;;;;;0.68;0.50;;;21.80;49.10;;;;;;5042204;28;20033;-52
2021/12/31 02:23:37;;;;;;;0.90;0.50;;;21.80;49.00;;;;;;5053492;28;20379;-46
2021/12/31 02:26:03;;;;;;;0.98;0.47;;;21.80;49.00;;;;;;5049997;28;20375;-47
2021/12/31 02:28:29;;;;;;;0.93;0.43;;;21.80;49.10;;;;;;5053556;28;20082;-50
2021/12/31 02:34:17;;;;;;;1.13;0.50;;;21.80;48.90;;;;;;5035807;28;20038;-50
2021/12/31 02:36:42;;;;;;;2.13;0.63;;;21.80;49.00;;;;;;5033660;28;20036;-52
2021/12/31 02:39:08;;;;;;;1.38;0.57;;;21.80;49.00;;;;;;5035598;28;20025;-51
2021/12/31 02:41:34;;;;;;;0.70;0.50;;;21.80;49.00;;;;;;5034001;28;20025;-45
2021/12/31 02:44:00;;;;;;;1.30;0.45;;;21.70;48.90;;;;;;5035880;28;20413;-57
2021/12/31 02:46:26;;;;;;;1.00;0.50;;;21.80;48.90;;;;;;5022023;28;20117;-49
2021/12/31 02:48:57;;;;;;;1.15;0.47;;;21.80;48.90;;;;;;5035391;28;20033;-49
2021/12/31 02:51:27;;;;;;;1.58;0.60;;;21.70;48.80;;;;;;5045575;28;20032;-51
2021/12/31 02:53:54;;;;;;;0.45;0.40;;;21.80;48.90;;;;;;5049207;28;20044;-48
2021/12/31 02:56:21;;;;;;;1.25;0.43;;;21.80;48.80;;;;;;5054324;28;20025;-55
2021/12/31 02:58:48;;;;;;;1.77;0.60;;;21.80;48.80;;;;;;5048586;28;20067;-50
2021/12/31 03:01:14;;;;;;;0.65;0.35;;;21.80;48.80;;;;;;5054309;28;20067;-53
2021/12/31 03:03:41;;;;;;;1.38;0.43;;;21.80;48.80;;;;;;5047615;28;20033;-50
2021/12/31 03:06:09;;;;;;;1.08;0.47;;;21.80;48.80;;;;;;5053764;28;20025;-51
2021/12/31 03:08:38;;;;;;;0.50;0.40;;;21.80;48.70;;;;;;5052124;28;20056;-49
2021/12/31 03:11:05;;;;;;;0.60;0.30;;;21.70;48.60;;;;;;5057508;28;20086;-50
2021/12/31 03:13:33;;;;;;;0.52;0.43;;;21.80;48.70;;;;;;5052959;28;20428;-51
2021/12/31 03:16:00;;;;;;;1.70;0.73;;;21.80;48.70;;;;;;5056428;28;20447;-56
2021/12/31 03:18:26;;;;;;;1.85;0.35;;;21.70;48.70;;;;;;5054813;28;21696;-56
2021/12/31 03:21:06;;;;;;;0.85;0.32;;;21.70;48.60;;;;;;5057452;28;20048;-49
2021/12/31 03:23:32;;;;;;;1.05;0.40;;;21.70;48.60;;;;;;5045401;28;20037;-49
2021/12/31 03:25:59;;;;;;;0.30;0.30;;;21.70;48.60;;;;;;5037403;28;20033;-55
2021/12/31 03:28:26;;;;;;;1.25;0.52;;;21.70;48.60;;;;;;5039451;28;20029;-55
2021/12/31 03:30:52;;;;;;;0.95;0.40;;;21.70;48.60;;;;;;5039157;28;20029;-53
2021/12/31 03:33:18;;;;;;;0.88;0.40;;;21.70;48.50;;;;;;5045631;28;20116;-50
2021/12/31 03:35:44;;;;;;;0.57;0.40;;;21.70;48.50;;;;;;5055995;28;20102;-52
2021/12/31 03:38:11;;;;;;;0.70;0.40;;;21.70;48.50;;;;;;5037571;28;20028;-54
2021/12/31 03:40:37;;;;;;;0.85;0.30;;;21.70;48.40;;;;;;5053960;28;20041;-52
2021/12/31 03:43:03;;;;;;;1.05;0.50;;;21.70;48.40;;;;;;5055146;28;20031;-51
2021/12/31 03:45:30;;;;;;;0.52;0.40;;;21.70;48.40;;;;;;5038913;28;20025;-51
2021/12/31 03:47:55;;;;;;;0.80;0.50;;;21.70;48.40;;;;;;5038217;28;20455;-50
2021/12/31 03:50:21;;;;;;;0.47;0.30;;;21.70;48.40;;;;;;5036966;28;20037;-57
2021/12/31 03:52:47;;;;;;;0.40;0.30;;;21.70;48.40;;;;;;5021016;28;20018;-50
2021/12/31 03:55:13;;;;;;;0.93;0.40;;;21.70;48.40;;;;;;5050932;28;20024;-53
2021/12/31 03:57:39;;;;;;;0.55;0.30;;;21.70;48.30;;;;;;5055383;28;20466;-46
2021/12/31 04:00:07;;;;;;;1.08;0.40;;;21.70;48.30;;;;;;5052316;28;20325;-49
2021/12/31 04:02:34;;;;;;;0.50;0.30;;;21.70;48.30;;;;;;5055331;28;20104;-50
2021/12/31 04:05:00;;;;;;;1.23;0.40;;;21.70;48.30;;;;;;5041530;28;20472;-51
2021/12/31 04:07:26;;;;;;;1.60;0.60;;;21.70;48.20;;;;;;5039678;28;20016;-55
2021/12/31 04:09:51;;;;;;;0.68;0.40;;;21.70;48.20;;;;;;5052006;28;20443;-47
2021/12/31 04:12:17;;;;;;;0.52;0.32;;;21.70;48.20;;;;;;5054868;28;20025;-50
2021/12/31 04:14:43;;;;;;;1.30;0.50;;;21.70;48.20;;;;;;5045233;28;20437;-48
2021/12/31 04:17:09;;;;;;;1.33;0.50;;;21.70;48.20;;;;;;5037528;28;20025;-51
2021/12/31 04:19:35;;;;;;;0.73;0.40;;;21.70;48.20;;;;;;5052161;28;20028;-48
2021/12/31 04:22:01;;;;;;;1.17;0.47;;;21.70;48.20;;;;;;5055637;28;20049;-53
2021/12/31 04:27:08;;;;;;;1.35;0.57;;;21.70;48.20;;;;;;5036515;28;20099;-46
2021/12/31 04:29:34;;;;;;;1.20;0.50;;;21.60;48.10;;;;;;5026187;28;20060;-50
2021/12/31 04:32:03;;;;;;;0.60;0.30;;;21.70;48.20;;;;;;5055422;28;20021;-52
2021/12/31 04:34:29;;;;;;;1.60;0.60;;;21.70;48.20;;;;;;5053891;28;20036;-51
2021/12/31 04:36:56;;;;;;;1.23;0.60;;;21.70;48.20;;;;;;5055978;28;20032;-48
2021/12/31 04:39:22;;;;;;;0.50;0.28;;;21.70;48.20;;;;;;5037247;28;20116;-48
2021/12/31 04:41:48;;;;;;;0.65;0.40;;;21.60;48.10;;;;;;5036893;28;20097;-48
2021/12/31 04:44:14;;;;;;;0.50;0.30;;;21.60;48.10;;;;;;5041959;28;20107;-46
2021/12/31 04:46:40;;;;;;;1.33;0.40;;;21.70;48.10;;;;;;5055811;28;20020;-49
2021/12/31 04:49:06;;;;;;;0.88;0.40;;;21.60;48.10;;;;;;5042341;28;20431;-50
2021/12/31 04:51:35;;;;;;;1.35;0.50;;;21.70;48.20;;;;;;5055447;28;20036;-55
2021/12/31 04:54:01;;;;;;;1.00;0.40;;;21.60;48.10;;;;;;5047804;28;20022;-53
2021/12/31 04:56:27;;;;;;;1.20;0.50;;;21.60;48.10;;;;;;5035650;28;20096;-48
2021/12/31 04:58:53;;;;;;;1.30;0.55;;;21.60;48.10;;;;;;5046128;28;20033;-48
2021/12/31 05:01:21;;;;;;;1.48;0.60;;;21.60;48.10;;;;;;5044823;28;20056;-52
2021/12/31 05:03:50;;;;;;;0.88;0.50;;;21.60;48.10;;;;;;5023714;28;20042;-50
2021/12/31 05:06:16;;;;;;;0.80;0.57;;;21.60;48.10;;;;;;4997523;28;20034;-52
2021/12/31 05:08:42;;;;;;;1.33;0.40;;;21.60;48.10;;;;;;4995882;28;20033;-51
2021/12/31 05:11:08;;;;;;;0.52;0.30;;;21.60;48.10;;;;;;5003539;28;20352;-52
2021/12/31 05:13:35;;;;;;;0.57;0.40;;;21.60;48.10;;;;;;5013460;28;20115;-51
2021/12/31 05:16:03;;;;;;;0.50;0.30;;;21.60;48.10;;;;;;5005992;28;20025;-50
2021/12/31 05:18:30;;;;;;;0.75;0.40;;;21.60;48.00;;;;;;4997382;28;20072;-46
2021/12/31 05:20:56;;;;;;;0.90;0.50;;;21.60;48.00;;;;;;5013209;28;20116;-53
2021/12/31 05:23:22;;;;;;;1.13;0.40;;;21.60;48.00;;;;;;5027112;28;20042;-53
2021/12/31 05:25:47;;;;;;;1.23;0.40;;;21.60;48.00;;;;;;4999899;28;20084;-53
2021/12/31 05:28:13;;;;;;;1.50;0.60;;;21.60;48.00;;;;;;5014997;28;20022;-56
2021/12/31 05:30:39;;;;;;;1.30;0.52;;;21.60;48.20;;;;;;5008428;28;20401;-51
2021/12/31 05:33:05;;;;;;;0.68;0.30;;;21.60;48.00;;;;;;4996302;28;20081;-50
2021/12/31 05:35:31;;;;;;;0.77;0.45;;;21.60;48.10;;;;;;5010881;28;20124;-52
2021/12/31 05:37:57;;;;;;;0.70;0.35;;;21.60;48.10;;;;;;5015450;28;20061;-52
2021/12/31 05:40:23;;;;;;;1.40;0.40;;;21.60;48.10;;;;;;4998367;28;20034;-53
2021/12/31 05:42:49;;;;;;;1.23;0.70;;;21.60;48.10;;;;;;5023332;28;20095;-52
2021/12/31 05:45:15;;;;;;;1.10;0.40;;;21.60;48.10;;;;;;5013249;28;20025;-49
2021/12/31 05:47:41;;;;;;;1.00;0.40;;;21.60;48.10;;;;;;5015290;28;20065;-49
2021/12/31 05:50:18;;;;;;;0.55;0.22;;;21.60;48.10;;;;;;5000786;28;20061;-54
2021/12/31 05:52:44;;;;;;;0.90;0.45;;;21.60;48.10;;;;;;4995485;28;20028;-54
2021/12/31 05:55:10;;;;;;;1.83;0.70;;;21.60;48.20;;;;;;4997514;28;20029;-49
2021/12/31 05:57:36;;;;;;;1.30;0.40;;;21.60;48.20;;;;;;4995422;28;20353;-52
2021/12/31 06:00:02;;;;;;;0.90;0.50;;;21.60;48.20;;;;;;4996519;28;20089;-51
2021/12/31 06:02:28;;;;;;;0.65;0.40;;;21.50;48.10;;;;;;5026562;28;20411;-48
2021/12/31 06:04:54;;;;;;;1.10;0.47;;;21.60;48.20;;;;;;5049216;28;20119;-52
2021/12/31 06:07:19;;;;;;;0.60;0.40;;;21.60;48.20;;;;;;5054818;28;20047;-48
2021/12/31 06:09:45;;;;;;;0.93;0.60;;;21.50;48.10;;;;;;5051815;28;20052;-51
2021/12/31 06:12:11;;;;;;;1.00;0.50;;;21.60;48.20;;;;;;5054644;28;20028;-50
2021/12/31 06:14:37;;;;;;;0.70;0.43;;;21.50;48.10;;;;;;5050121;28;20492;-48
2021/12/31 06:17:07;;;;;;;0.90;0.40;;;21.60;48.10;;;;;;5054733;28;20025;-48
2021/12/31 06:19:33;;;;;;;0.77;0.40;;;21.60;48.10;;;;;;5050802;28;20122;-49
2021/12/31 06:21:59;;;;;;;1.23;0.30;;;21.60;48.10;;;;;;5054396;28;20032;-52
2021/12/31 06:24:25;;;;;;;1.73;0.50;;;21.60;48.10;;;;;;5044411;28;20036;-49
2021/12/31 06:26:51;;;;;;;1.08;0.40;;;21.50;48.10;;;;;;5016852;28;20116;-55
2021/12/31 06:29:17;;;;;;;1.27;0.50;;;21.50;48.10;;;;;;5038535;28;20112;-51
2021/12/31 06:31:42;;;;;;;0.93;0.50;;;21.50;48.10;;;;;;5054675;28;20025;-51
2021/12/31 06:34:08;;;;;;;1.08;0.50;;;21.50;48.10;;;;;;5049499;28;20031;-51
2021/12/31 06:36:34;;;;;;;0.75;0.50;;;21.50;48.10;;;;;;5054808;28;20032;-50
2021/12/31 06:39:02;;;;;;;1.08;0.60;;;21.50;48.00;;;;;;5053279;28;20029;-52
2021/12/31 06:41:28;;;;;;;0.65;0.50;;;21.50;48.00;;;;;;5047459;28;20518;-50
2021/12/31 06:43:54;;;;;;;1.08;0.50;;;21.50;48.00;;;;;;5053527;28;20033;-48
2021/12/31 06:46:20;;;;;;;1.20;0.43;;;21.50;48.00;;;;;;5056157;28;20032;-52
2021/12/31 06:48:46;;;;;;;1.25;0.50;;;21.50;48.00;;;;;;5055069;28;20092;-49
2021/12/31 06:51:12;;;;;;;1.05;0.50;;;21.50;47.90;;;;;;5056889;28;20313;-53
2021/12/31 06:53:39;;;;;;;0.80;0.50;;;21.50;48.00;;;;;;5055795;28;20051;-58
2021/12/31 06:56:05;;;;;;;0.70;0.40;;;21.50;47.90;;;;;;5038091;28;20030;-49
2021/12/31 06:58:31;;;;;;;1.20;0.40;;;21.50;47.90;;;;;;5037713;28;20045;-56
2021/12/31 07:00:56;;;;;;;0.65;0.50;;;21.50;47.90;;;;;;5046998;28;20037;-46
2021/12/31 07:03:22;;;;;;;0.93;0.47;;;21.50;47.90;;;;;;5053001;28;20033;-51
2021/12/31 07:05:48;;;;;;;0.73;0.40;;;21.50;47.90;;;;;;5055563;28;20352;-48
2021/12/31 07:08:14;;;;;;;0.45;0.30;;;21.50;47.90;;;;;;5053874;28;20031;-51
2021/12/31 07:10:40;;;;;;;0.77;0.40;;;21.50;47.90;;;;;;5039159;28;20029;-54
2021/12/31 07:13:10;;;;;;;1.70;0.60;;;21.50;47.90;;;;;;5039685;28;20033;-48
2021/12/31 07:15:44;;;;;;;1.35;0.57;;;21.50;47.90;;;;;;5049333;28;20025;-49
2021/12/31 07:18:11;;;;;;;1.55;0.40;;;21.50;47.80;;;;;;5039814;28;20029;-48
2021/12/31 07:20:37;;;;;;;1.05;0.55;;;21.50;47.90;;;;;;5053567;28;20420;-53
2021/12/31 07:23:08;;;;;;;0.75;0.50;;;21.50;47.80;;;;;;5056531;28;20391;-48
2021/12/31 07:25:34;;;;;;;1.20;0.80;;;21.50;47.80;;;;;;5049281;28;20032;-56
2021/12/31 07:28:01;;;;;;;1.00;0.57;;;21.40;47.80;;;;;;5057005;28;20036;-52
2021/12/31 07:30:27;;;;;;;1.55;0.60;;;21.50;47.80;;;;;;5040740;28;20329;-49
2021/12/31 07:32:53;;;;;;;3.67;0.88;;;21.40;47.70;;;;;;5037087;28;20029;-50
2021/12/31 07:35:19;;;;;;;2.03;0.70;;;21.40;47.70;;;;;;5038171;28;20030;-52
2021/12/31 07:37:45;;;;;;;1.90;0.75;;;21.40;47.70;;;;;;5054029;28;20049;-52
2021/12/31 07:40:12;;;;;;;2.15;0.70;;;21.40;47.70;;;;;;5051166;28;20075;-47
2021/12/31 07:42:39;;;;;;;1.65;0.60;;;21.40;47.70;;;;;;5053997;28;20317;-50
2021/12/31 07:45:06;;;;;;;1.70;0.85;;;21.40;47.70;;;;;;5054138;28;20053;-47
2021/12/31 07:47:32;;;;;;;3.08;1.20;;;21.40;47.70;;;;;;5046273;28;20056;-57
2021/12/31 07:49:58;;;;;;;1.73;0.70;;;21.40;47.60;;;;;;5051194;28;20053;-49
2021/12/31 07:52:24;;;;;;;2.67;0.90;;;21.50;47.70;;;;;;5048653;28;20021;-47
2021/12/31 07:54:49;;;;;;;1.55;0.80;;;21.50;47.50;;;;;;5044752;28;20028;-53
2021/12/31 07:57:15;;;;;;;1.73;0.60;;;21.60;47.50;;;;;;5051811;28;20024;-46
2021/12/31 07:59:41;;;;;;;1.75;0.93;;;21.60;47.40;;;;;;5043072;28;20025;-48
2021/12/31 08:02:07;;;;;;;1.95;0.80;;;21.70;47.40;;;;;;5053092;28;20021;-47
2021/12/31 08:04:33;;;;;;;0.85;0.60;;;21.70;47.20;;;;;;5035833;28;20045;-49
2021/12/31 08:06:59;;;;;;;1.60;0.70;;;21.80;47.20;;;;;;5037831;28;20032;-47
2021/12/31 08:09:25;;;;;;;2.67;0.70;;;21.80;47.10;;;;;;5041345;28;20104;-50
2021/12/31 08:11:51;;;;;;;2.70;0.70;;;21.90;47.00;;;;;;5045823;28;20440;-52
2021/12/31 08:14:17;;;;;;;1.75;0.70;;;21.90;46.90;;;;;;5056506;28;20424;-55
2021/12/31 08:16:42;;;;;;;1.45;0.80;;;22.00;46.80;;;;;;5055388;28;20062;-53
2021/12/31 08:19:08;;;;;;;1.52;0.75;;;22.00;46.80;;;;;;5052629;28;20070;-49
2021/12/31 08:21:34;;;;;;;1.67;0.70;;;22.10;46.80;;;;;;5045173;28;20111;-54
2021/12/31 08:24:00;;;;;;;2.40;0.80;;;22.10;46.60;;;;;;5039541;28;20429;-49
2021/12/31 08:26:26;;;;;;;1.55;0.80;;;22.10;46.50;;;;;;5042124;28;20032;-56
2021/12/31 08:28:51;;;;;;;1.75;0.77;;;22.20;46.50;;;;;;5051959;28;20033;-48
2021/12/31 08:31:17;;;;;;;1.55;0.82;;;22.30;46.50;;;;;;5036503;28;20053;-49
2021/12/31 08:33:43;;;;;;;1.90;1.00;;;22.30;46.40;;;;;;5037420;28;20049;-49
2021/12/31 08:36:09;;;;;;;2.20;1.10;;;22.30;46.40;;;;;;5023878;28;20032;-50
2021/12/31 08:38:34;;;;;;;2.15;0.90;;;22.30;46.30;;;;;;5052683;28;20394;-54
2021/12/31 08:41:01;;;;;;;2.65;0.75;;;22.40;46.30;;;;;;5056045;28;20300;-49
2021/12/31 08:43:27;;;;;;;1.00;0.70;;;22.40;46.20;;;;;;5051770;28;20037;-53
2021/12/31 08:45:53;;;;;;;2.65;0.80;;;22.50;46.10;;;;;;5055690;28;20538;-46
2021/12/31 08:48:19;;;;;;;1.45;0.50;;;22.50;46.00;;;;;;5051342;28;20044;-48
2021/12/31 08:50:45;;;;;;;1.70;0.60;;;22.50;45.90;;;;;;5052643;28;20343;-47
2021/12/31 08:53:12;;;;;;;1.80;0.77;;;22.60;45.90;;;;;;5053113;28;20351;-55
2021/12/31 08:55:38;;;;;;;2.60;0.80;;;22.60;45.80;;;;;;5053003;28;20032;-48
2021/12/31 08:58:04;;;;;;;1.35;0.80;;;22.60;45.70;;;;;;5052442;28;20033;-47
2021/12/31 09:00:30;;;;;;;2.15;0.80;;;22.60;45.60;;;;;;5045853;28;20039;-48
2021/12/31 09:02:56;;;;;;;1.70;0.60;;;22.70;45.60;;;;;;5036307;28;20017;-51
2021/12/31 09:05:22;;;;;;;1.60;0.80;;;22.70;45.50;;;;;;5036594;28;20128;-48
2021/12/31 09:07:50;;;;;;;1.58;0.77;;;22.70;45.40;;;;;;5035871;28;20039;-49
2021/12/31 09:10:16;;;;;;;0.90;0.60;;;22.80;45.40;;;;;;5035416;28;20029;-49
2021/12/31 09:12:44;;;;;;;1.88;0.70;;;22.80;45.20;;;;;;5039617;28;20444;-46
2021/12/31 09:15:11;;;;;;;1.08;0.50;;;22.90;45.20;;;;;;5055309;28;20412;-46
2021/12/31 09:17:36;;;;;;;1.20;0.60;;;22.90;45.10;;;;;;5041591;28;20017;-45
2021/12/31 09:20:04;;;;;;;1.25;0.50;;;23.00;45.00;;;;;;5049088;28;20036;-53
2021/12/31 09:22:29;;;;;;;0.98;0.63;;;23.00;44.90;;;;;;5037031;28;20033;-49
2021/12/31 09:24:58;;;;;;;1.08;0.70;;;23.00;44.90;;;;;;5036055;28;20033;-50
2021/12/31 09:27:24;;;;;;;1.05;0.63;;;23.10;44.80;;;;;;5050308;28;20096;-53
2021/12/31 09:29:50;;;;;;;0.82;0.40;;;23.10;44.80;;;;;;5042546;28;20044;-50
2021/12/31 09:32:16;;;;;;;3.28;0.55;;;23.20;44.70;;;;;;5040862;28;20025;-50
2021/12/31 09:34:44;;;;;;;2.10;0.65;;;23.20;44.60;;;;;;5044754;28;20029;-49
2021/12/31 09:37:11;;;;;;;1.08;0.52;;;23.20;44.50;;;;;;5039449;28;20122;-54
2021/12/31 09:39:37;;;;;;;2.58;0.70;;;23.20;44.50;;;;;;5035612;28;20448;-53
2021/12/31 09:42:05;;;;;;;3.70;0.80;;;23.20;44.50;;;;;;5031786;28;20029;-48
2021/12/31 09:44:32;;;;;;;3.53;0.57;;;23.20;44.60;;;;;;5052888;28;20032;-50
2021/12/31 09:46:58;;;;;;;1.38;0.70;;;23.20;44.60;;;;;;5052105;28;20048;-53
2021/12/31 09:49:24;;;;;;;0.98;0.68;;;23.20;44.60;;;;;;5046769;28;20368;-49
2021/12/31 09:51:51;;;;;;;1.50;0.77;;;23.20;44.60;;;;;;5035457;28;20056;-54
2021/12/31 09:54:21;;;;;;;1.73;0.77;;;23.20;44.60;;;;;;5050269;28;20035;-58
2021/12/31 09:56:49;;;;;;;1.63;0.60;;;23.20;44.70;;;;;;5050707;28;20040;-53
2021/12/31 09:59:15;;;;;;;1.00;0.60;;;23.20;44.70;;;;;;5035056;28;20445;-53
2021/12/31 10:01:58;;;;;;;1.23;0.60;;;23.20;44.70;;;;;;5048188;28;20075;-49
2021/12/31 10:04:53;;;;;;;8.23;0.90;;;23.20;44.60;;;;;;5034654;28;20073;-53
2021/12/31 10:07:21;;;;;;;2.35;0.88;;;23.10;44.60;;;;;;5046823;28;20125;-52
2021/12/31 10:10:02;;;;;;;2.28;0.73;;;23.00;45.30;;;;;;5034833;28;20037;-49
2021/12/31 10:12:58;;;;;;;1.83;0.70;;;23.10;44.70;;;;;;5048870;28;20036;-50
2021/12/31 10:15:25;;;;;;;1.70;0.65;;;23.00;44.60;;;;;;5040324;28;20100;-52
2021/12/31 10:17:52;;;;;;;1.25;0.60;;;22.90;44.70;;;;;;5051916;28;20026;-48
2021/12/31 10:20:18;;;;;;;1.27;0.60;;;23.00;44.70;;;;;;5054030;28;20044;-58
2021/12/31 10:22:45;;;;;;;0.90;0.50;;;22.90;44.60;;;;;;5039489;28;20025;-52
2021/12/31 10:25:30;;;;;;;0.70;0.50;;;22.90;44.60;;;;;;5038852;28;20527;-53
2021/12/31 10:28:11;;;;;;;1.30;0.47;;;22.90;44.60;;;;;;5045911;28;20040;-50
2021/12/31 10:30:37;;;;;;;0.93;0.57;;;22.90;44.50;;;;;;5052993;28;20491;-51
2021/12/31 10:33:03;;;;;;;0.75;0.60;;;22.80;44.60;;;;;;5039693;28;20111;-53
2021/12/31 10:35:38;;;;;;;0.63;0.40;;;22.80;44.70;;;;;;5039859;28;20061;-55
2021/12/31 10:38:06;;;;;;;1.77;0.60;;;22.90;44.70;;;;;;5039127;28;20110;-58
2021/12/31 10:40:36;;;;;;;1.77;0.57;;;22.80;44.80;;;;;;5043782;28;20164;-57
2021/12/31 10:43:07;;;;;;;1.73;0.70;;;22.90;44.80;;;;;;5057575;28;20104;-51
2021/12/31 10:45:36;;;;;;;0.90;0.50;;;22.80;44.80;;;;;;5044117;28;20104;-56
2021/12/31 10:48:08;;;;;;;1.27;0.60;;;22.80;44.90;;;;;;5057948;28;20106;-55
2021/12/31 10:50:35;;;;;;;2.42;0.90;;;22.80;45.10;;;;;;5056126;28;20044;-51
2021/12/31 10:53:08;;;;;;;2.17;0.73;;;22.80;45.10;;;;;;5050080;28;20360;-55
2021/12/31 10:55:39;;;;;;;2.15;0.60;;;22.80;45.20;;;;;;5044497;28;20099;-56
2021/12/31 10:58:17;;;;;;;1.33;0.70;;;22.80;45.20;;;;;;5057340;28;20029;-52
2021/12/31 11:00:44;;;;;;;1.42;0.60;;;22.80;45.20;;;;;;5049782;28;20040;-48
2021/12/31 11:03:10;;;;;;;1.85;0.68;;;22.70;45.20;;;;;;5037225;28;20026;-54
2021/12/31 11:05:37;;;;;;;1.00;0.63;;;22.70;45.20;;;;;;5027799;28;20021;-54
2021/12/31 11:08:13;;;;;;;1.13;0.70;;;22.70;45.20;;;;;;5042873;28;20029;-53
2021/12/31 11:10:40;;;;;;;1.27;0.60;;;22.70;45.20;;;;;;5049113;28;20106;-55
2021/12/31 11:13:14;;;;;;;0.95;0.63;;;22.70;45.20;;;;;;5056469;28;20408;-53
2021/12/31 11:15:43;;;;;;;1.85;0.60;;;22.70;45.20;;;;;;5044418;28;20087;-55
2021/12/31 11:18:19;;;;;;;0.68;0.50;;;22.70;45.20;;;;;;5043019;28;20134;-57
2021/12/31 11:20:52;;;;;;;0.88;0.60;;;22.70;45.30;;;;;;5045190;28;20042;-51
2021/12/31 11:23:30;;;;;;;3.38;0.73;;;22.70;45.30;;;;;;5042488;28;20116;-55
2021/12/31 11:26:05;;;;;;;1.42;0.70;;;22.70;45.30;;;;;;5047857;28;20318;-51
2021/12/31 11:28:42;;;;;;;0.85;0.60;;;22.70;45.30;;;;;;5044699;28;20029;-53
2021/12/31 11:31:17;;;;;;;2.08;0.60;;;22.70;45.30;;;;;;5040853;28;20365;-49
2021/12/31 11:33:45;;;;;;;0.95;0.50;;;22.70;45.30;;;;;;5045952;28;20090;-52
2021/12/31 11:36:12;;;;;;;0.80;0.52;;;22.70;45.30;;;;;;5039312;28;20109;-55
2021/12/31 11:38:39;;;;;;;2.28;0.60;;;22.70;45.20;;;;;;5045498;28;20115;-55
2021/12/31 11:41:21;;;;;;;0.90;0.40;;;22.70;45.20;;;;;;5046969;28;20044;-50
2021/12/31 11:44:10;;;;;;;0.70;0.40;;;22.70;45.20;;;;;;5055463;28;20029;-54
2021/12/31 11:46:41;;;;;;;2.38;0.60;;;22.80;45.20;;;;;;5051118;28;20129;-51
2021/12/31 11:49:26;;;;;;;0.80;0.38;;;22.80;45.20;;;;;;5049620;28;20049;-46
2021/12/31 11:52:02;;;;;;;0.75;0.60;;;22.80;45.10;;;;;;5043922;28;20029;-52
2021/12/31 11:54:28;;;;;;;0.70;0.40;;;22.80;45.10;;;;;;5038241;28;20079;-55
2021/12/31 11:56:57;;;;;;;1.08;0.60;;;22.80;45.10;;;;;;5046612;28;20284;-52
2021/12/31 11:59:53;;;;;;;0.57;0.45;;;22.80;45.10;;;;;;5041026;28;20022;-55
2021/12/31 12:02:22;;;;;;;1.80;0.43;;;22.80;45.00;;;;;;5035236;28;20063;-54
2021/12/31 12:04:59;;;;;;;0.80;0.63;;;22.80;45.00;;;;;;5048392;28;20037;-49
2021/12/31 12:07:34;;;;;;;0.98;0.50;;;22.90;45.00;;;;;;5018167;28;20029;-57
2021/12/31 12:10:00;;;;;;;0.77;0.47;;;22.90;45.00;;;;;;5043029;28;20024;-54
2021/12/31 12:12:28;;;;;;;4.05;0.65;;;22.90;45.20;;;;;;5040185;28;20082;-50
2021/12/31 12:14:55;;;;;;;1.13;0.57;;;22.90;45.30;;;;;;5045249;28;20024;-56
2021/12/31 12:17:30;;;;;;;1.73;0.60;;;22.90;45.30;;;;;;5049034;28;20834;-51
2021/12/31 12:20:01;;;;;;;1.13;0.60;;;23.00;45.20;;;;;;5038654;28;20048;-54
2021/12/31 12:22:34;;;;;;;1.33;0.50;;;23.00;45.30;;;;;;5039546;28;20021;-56
2021/12/31 12:25:15;;;;;;;1.00;0.60;;;23.00;45.20;;;;;;5046202;28;20364;-52
2021/12/31 12:27:41;;;;;;;0.75;0.45;;;23.00;45.10;;;;;;5037343;28;20177;-50
2021/12/31 12:30:11;;;;;;;0.85;0.43;;;23.00;45.10;;;;;;5050320;28;20039;-51
2021/12/31 12:35:25;;;;;;;1.73;0.60;;;23.10;45.00;;;;;;5041187;28;20092;-57
2021/12/31 12:38:05;;;;;;;0.77;0.50;;;23.10;45.00;;;;;;5048611;28;20052;-54
2021/12/31 12:40:42;;;;;;;1.00;0.65;;;23.10;45.00;;;;;;5051337;28;20106;-55
2021/12/31 12:43:32;;;;;;;1.65;1.00;;;23.10;45.10;;;;;;5048052;28;20033;-52
2021/12/31 12:46:00;;;;;;;1.92;0.60;;;23.20;45.20;;;;;;5036329;28;20033;-53
2021/12/31 12:48:30;;;;;;;1.67;0.80;;;23.20;45.20;;;;;;5050097;28;20047;-55
2021/12/31 12:50:58;;;;;;;1.60;0.77;;;23.20;45.30;;;;;;5041641;28;20025;-53
2021/12/31 12:53:26;;;;;;;1.55;0.80;;;23.20;45.40;;;;;;5049966;28;20102;-54
2021/12/31 12:56:09;;;;;;;1.17;1.00;;;23.30;45.50;;;;;;5068466;28;20374;-57
2021/12/31 12:58:37;;;;;;;3.25;1.00;;;23.30;45.60;;;;;;5056505;28;20040;-52
2021/12/31 13:01:06;;;;;;;3.92;1.05;;;23.30;45.70;;;;;;5053134;28;20037;-51
2021/12/31 13:03:44;;;;;;;1.35;0.82;;;23.30;45.80;;;;;;5062667;28;20061;-54
2021/12/31 13:06:10;;;;;;;1.33;0.90;;;23.30;45.90;;;;;;5038484;28;20429;-54